createdAt,value
2022-09-13T00:01:12.480Z,4.25
2022-09-13T00:03:14.207Z,2.47
2022-09-13T00:05:15.954Z,2.40
2022-09-13T00:07:17.559Z,3.08
2022-09-13T00:09:19.238Z,2.70
2022-09-13T00:11:24.069Z,2.50
2022-09-13T00:13:25.711Z,2.75
2022-09-13T00:15:27.841Z,2.75
2022-09-13T00:17:29.638Z,2.63
2022-09-13T00:19:31.260Z,3.10
2022-09-13T00:21:32.938Z,2.47
2022-09-13T00:23:35.492Z,2.80
2022-09-13T00:25:37.272Z,2.95
2022-09-13T00:27:38.933Z,3.10
2022-09-13T00:29:40.682Z,2.83
2022-09-13T00:31:42.536Z,3.40
2022-09-13T00:33:44.316Z,3.00
2022-09-13T00:35:45.994Z,2.55
2022-09-13T00:37:47.656Z,2.60
2022-09-13T00:39:50.011Z,2.78
2022-09-13T00:41:51.698Z,3.22
2022-09-13T00:43:54.591Z,2.20
2022-09-13T00:45:56.246Z,3.17
2022-09-13T00:48:02.162Z,2.28
2022-09-13T00:50:17.353Z,2.47
2022-09-13T00:52:21.202Z,3.60
2022-09-13T00:54:24.340Z,3.20
2022-09-13T00:56:32.515Z,2.80
2022-09-13T00:58:39.494Z,2.95
2022-09-13T01:00:41.225Z,2.95
2022-09-13T01:02:54.386Z,3.63
2022-09-13T01:04:56.231Z,2.88
2022-09-13T01:07:02.079Z,3.05
2022-09-13T01:09:05.281Z,5.07
2022-09-13T01:11:11.978Z,3.30
2022-09-13T01:13:18.712Z,2.72
2022-09-13T01:15:20.583Z,3.00
2022-09-13T01:17:22.221Z,4.03
2022-09-13T01:19:24.166Z,3.65
2022-09-13T01:21:34.810Z,3.22
2022-09-13T01:24:10.523Z,3.08
2022-09-13T01:26:25.678Z,2.95
2022-09-13T01:28:34.598Z,3.13
2022-09-13T01:30:38.520Z,3.03
2022-09-13T01:32:59.197Z,3.13
2022-09-13T01:35:19.619Z,2.78
2022-09-13T01:37:44.056Z,3.13
2022-09-13T01:40:22.278Z,3.83
2022-09-13T01:42:37.288Z,2.85
2022-09-13T01:45:05.806Z,3.40
2022-09-13T01:47:34.574Z,3.13
2022-09-13T01:49:47.846Z,3.30
2022-09-13T01:52:08.982Z,3.28
2022-09-13T01:54:15.834Z,3.58
2022-09-13T01:56:23.236Z,3.28
2022-09-13T01:58:33.947Z,2.92
2022-09-13T02:00:48.918Z,3.33
2022-09-13T02:02:53.085Z,3.58
2022-09-13T02:04:59.188Z,3.15
2022-09-13T02:07:05.088Z,2.97
2022-09-13T02:09:12.509Z,3.25
2022-09-13T02:11:17.372Z,3.33
2022-09-13T02:13:22.912Z,3.28
2022-09-13T02:15:30.290Z,3.13
2022-09-13T02:17:39.248Z,3.85
2022-09-13T02:19:51.327Z,4.00
2022-09-13T02:21:57.981Z,3.65
2022-09-13T02:24:14.624Z,3.72
2022-09-13T02:26:16.528Z,3.45
2022-09-13T02:28:24.147Z,3.20
2022-09-13T02:30:26.312Z,2.97
2022-09-13T02:32:37.476Z,3.45
2022-09-13T02:35:19.616Z,3.83
2022-09-13T02:37:23.506Z,3.72
2022-09-13T02:39:26.573Z,2.60
2022-09-13T02:41:54.788Z,3.33
2022-09-13T02:44:09.595Z,3.67
2022-09-13T02:46:40.923Z,3.40
2022-09-13T02:48:49.802Z,4.45
2022-09-13T02:51:04.157Z,3.95
2022-09-13T02:53:26.490Z,4.63
2022-09-13T02:55:43.109Z,4.10
2022-09-13T02:58:11.149Z,4.03
2022-09-13T03:00:13.448Z,3.58
2022-09-13T03:02:17.615Z,3.50
2022-09-13T03:04:19.285Z,3.60
2022-09-13T03:06:28.752Z,3.38
2022-09-13T03:08:30.595Z,3.80
2022-09-13T03:10:44.931Z,3.45
2022-09-13T03:13:39.450Z,3.50
2022-09-13T03:15:41.025Z,3.08
2022-09-13T03:17:52.761Z,3.25
2022-09-13T03:20:19.239Z,2.83
2022-09-13T03:22:33.884Z,3.88
2022-09-13T03:25:01.580Z,4.10
2022-09-13T03:27:24.796Z,4.65
2022-09-13T03:29:31.750Z,4.05
2022-09-13T03:31:56.895Z,3.97
2022-09-13T03:34:11.273Z,4.15
2022-09-13T03:36:19.490Z,3.70
2022-09-13T03:38:27.355Z,3.75
2022-09-13T03:40:40.566Z,3.92
2022-09-13T03:42:52.848Z,3.85
2022-09-13T03:44:56.234Z,3.40
2022-09-13T03:46:59.165Z,3.50
2022-09-13T03:49:08.055Z,4.20
2022-09-13T03:51:10.288Z,3.85
2022-09-13T03:53:14.572Z,3.80
2022-09-13T03:55:19.625Z,4.28
2022-09-13T03:57:22.598Z,4.22
2022-09-13T03:59:24.480Z,4.25
2022-09-13T04:01:26.629Z,3.70
2022-09-13T04:03:28.275Z,3.55
2022-09-13T04:05:34.698Z,3.97
2022-09-13T04:07:36.394Z,3.22
2022-09-13T04:09:38.336Z,3.35
2022-09-13T04:11:40.957Z,3.28
2022-09-13T04:13:42.661Z,3.28
2022-09-13T04:15:44.287Z,2.97
2022-09-13T04:17:45.904Z,3.40
2022-09-13T04:19:47.549Z,3.80
2022-09-13T04:21:50.084Z,3.13
2022-09-13T04:23:51.749Z,3.08
2022-09-13T04:25:53.672Z,3.58
2022-09-13T04:27:56.682Z,2.70
2022-09-13T04:29:58.331Z,3.42
2022-09-13T04:32:00.508Z,3.05
2022-09-13T04:34:03.172Z,3.90
2022-09-13T04:36:04.944Z,3.35
2022-09-13T04:38:07.455Z,3.22
2022-09-13T04:40:09.821Z,3.22
2022-09-13T04:42:11.588Z,2.95
2022-09-13T04:44:13.204Z,2.78
2022-09-13T04:46:14.842Z,3.08
2022-09-13T04:48:16.725Z,3.08
2022-09-13T04:50:18.337Z,3.00
2022-09-13T04:52:20.063Z,3.38
2022-09-13T04:54:22.368Z,3.10
2022-09-13T04:56:24.852Z,3.05
2022-09-13T04:58:26.438Z,3.78
2022-09-13T05:00:28.290Z,3.38
2022-09-13T05:02:29.946Z,4.22
2022-09-13T05:04:31.635Z,3.45
2022-09-13T05:06:33.500Z,3.80
2022-09-13T05:08:35.829Z,3.42
2022-09-13T05:10:37.416Z,3.65
2022-09-13T05:12:39.058Z,3.65
2022-09-13T05:14:40.643Z,4.10
2022-09-13T05:16:42.413Z,4.50
2022-09-13T05:18:45.375Z,4.10
2022-09-13T05:20:47.046Z,3.97
2022-09-13T05:22:48.825Z,3.38
2022-09-13T05:24:50.703Z,3.45
2022-09-13T05:26:52.287Z,2.83
2022-09-13T05:28:54.022Z,2.90
2022-09-13T05:31:06.725Z,3.58
2022-09-13T05:33:08.342Z,3.53
2022-09-13T05:35:09.992Z,3.28
2022-09-13T05:37:11.643Z,3.47
2022-09-13T05:41:37.202Z,3.90
2022-09-13T05:43:38.842Z,3.00
2022-09-13T05:45:41.307Z,3.15
2022-09-13T05:47:42.947Z,3.53
2022-09-13T05:50:03.405Z,3.60
2022-09-13T05:52:06.170Z,3.80
2022-09-13T05:54:08.364Z,3.70
2022-09-13T05:56:16.330Z,3.25
2022-09-13T05:58:18.378Z,3.80
2022-09-13T06:00:20.093Z,3.45
2022-09-13T06:02:21.940Z,4.47
2022-09-13T06:04:23.956Z,3.28
2022-09-13T06:06:25.791Z,3.80
2022-09-13T06:08:29.369Z,4.35
2022-09-13T06:10:31.099Z,3.40
2022-09-13T06:12:32.696Z,4.00
2022-09-13T06:14:34.539Z,4.03
2022-09-13T06:16:36.885Z,3.60
2022-09-13T06:18:38.949Z,4.43
2022-09-13T06:20:40.546Z,4.75
2022-09-13T06:22:42.172Z,3.90
2022-09-13T06:24:43.949Z,3.90
2022-09-13T06:26:45.494Z,4.47
2022-09-13T06:28:49.149Z,3.92
2022-09-13T06:30:51.232Z,3.85
2022-09-13T06:32:52.908Z,3.83
2022-09-13T06:34:54.560Z,3.35
2022-09-13T06:36:56.378Z,3.25
2022-09-13T06:39:00.695Z,4.25
2022-09-13T06:41:13.802Z,4.03
2022-09-13T06:43:15.942Z,4.15
2022-09-13T06:45:18.825Z,3.72
2022-09-13T06:47:20.381Z,4.63
2022-09-13T06:49:21.989Z,3.67
2022-09-13T06:51:24.950Z,4.05
2022-09-13T06:53:28.938Z,4.10
2022-09-13T06:55:30.640Z,3.90
2022-09-13T06:57:32.223Z,4.65
2022-09-13T06:59:35.071Z,3.95
2022-09-13T07:01:43.652Z,4.10
2022-09-13T07:03:52.895Z,5.80
2022-09-13T07:05:54.465Z,4.22
2022-09-13T07:07:56.043Z,4.35
2022-09-13T07:09:57.716Z,4.70
2022-09-13T07:11:59.291Z,4.40
2022-09-13T07:14:01.192Z,4.72
2022-09-13T07:16:08.085Z,4.63
2022-09-13T07:18:09.684Z,4.00
2022-09-13T07:20:11.366Z,4.43
2022-09-13T07:22:13.327Z,5.47
2022-09-13T07:24:14.981Z,5.22
2022-09-13T07:26:16.618Z,4.50
2022-09-13T07:28:21.237Z,4.88
2022-09-13T07:30:25.837Z,4.72
2022-09-13T07:32:27.443Z,4.35
2022-09-13T07:34:29.099Z,4.55
2022-09-13T07:36:32.199Z,4.95
2022-09-13T07:38:38.358Z,4.55
2022-09-13T07:40:40.048Z,4.00
2022-09-13T07:42:41.620Z,3.85
2022-09-13T07:44:43.213Z,5.00
2022-09-13T07:46:45.005Z,3.88
2022-09-13T07:48:47.395Z,4.30
2022-09-13T07:51:02.385Z,3.90
2022-09-13T07:53:04.311Z,3.83
2022-09-13T07:55:06.483Z,3.47
2022-09-13T07:57:08.070Z,3.53
2022-09-13T07:59:14.986Z,4.22
2022-09-13T08:01:19.356Z,3.55
2022-09-13T08:03:20.996Z,4.85
2022-09-13T08:05:22.571Z,4.28
2022-09-13T08:07:24.727Z,4.65
2022-09-13T08:09:26.409Z,3.75
2022-09-13T08:11:34.890Z,3.55
2022-09-13T08:13:36.499Z,3.33
2022-09-13T08:15:38.134Z,3.17
2022-09-13T08:17:39.789Z,4.10
2022-09-13T08:19:41.413Z,3.78
2022-09-13T08:21:45.495Z,3.40
2022-09-13T08:23:47.190Z,3.13
2022-09-13T08:25:48.746Z,3.30
2022-09-13T08:27:50.372Z,2.90
2022-09-13T08:29:51.988Z,3.40
2022-09-13T08:31:53.774Z,4.07
2022-09-13T08:33:56.117Z,3.65
2022-09-13T08:35:58.543Z,3.72
2022-09-13T08:38:00.743Z,2.70
2022-09-13T08:40:03.284Z,3.45
2022-09-13T08:42:43.894Z,3.22
2022-09-13T08:44:48.561Z,3.72
2022-09-13T08:46:51.021Z,4.05
2022-09-13T08:48:56.164Z,3.63
2022-09-13T08:51:04.008Z,3.47
2022-09-13T08:53:26.616Z,2.38
2022-09-13T08:55:47.243Z,3.00
2022-09-13T08:58:18.534Z,2.75
2022-09-13T09:00:33.347Z,3.25
2022-09-13T09:02:49.942Z,4.03
2022-09-13T09:05:07.016Z,2.65
2022-09-13T09:07:33.130Z,2.53
2022-09-13T09:09:41.311Z,2.85
2022-09-13T09:11:54.559Z,2.72
2022-09-13T09:14:16.229Z,3.28
2022-09-13T09:17:04.138Z,2.33
2022-09-13T09:19:15.703Z,2.47
2022-09-13T09:21:18.816Z,2.50
2022-09-13T09:23:21.926Z,2.63
2022-09-13T09:25:26.228Z,3.28
2022-09-13T09:27:30.914Z,2.85
2022-09-13T09:29:33.574Z,3.08
2022-09-13T09:32:03.538Z,3.33
2022-09-13T09:34:45.438Z,2.95
2022-09-13T09:36:59.699Z,3.13
2022-09-13T09:39:04.629Z,3.92
2022-09-13T09:41:28.309Z,2.75
2022-09-13T09:43:40.370Z,3.15
2022-09-13T09:45:43.902Z,3.28
2022-09-13T09:47:47.133Z,2.75
2022-09-13T09:50:12.315Z,2.78
2022-09-13T09:52:16.833Z,2.22
2022-09-13T09:54:19.023Z,3.38
2022-09-13T09:56:24.075Z,2.97
2022-09-13T09:58:46.237Z,2.60
2022-09-13T10:01:10.844Z,2.38
2022-09-13T10:03:22.144Z,2.58
2022-09-13T10:05:26.042Z,2.85
2022-09-13T10:07:32.835Z,2.83
2022-09-13T10:09:34.806Z,2.63
2022-09-13T10:11:58.030Z,2.83
2022-09-13T10:14:02.007Z,2.63
2022-09-13T10:16:23.699Z,3.35
2022-09-13T10:18:43.341Z,2.92
2022-09-13T10:21:02.887Z,3.08
2022-09-13T10:23:14.792Z,2.97
2022-09-13T10:25:22.027Z,2.85
2022-09-13T10:27:38.233Z,2.70
2022-09-13T10:29:39.854Z,2.40
2022-09-13T10:31:44.691Z,2.67
2022-09-13T10:33:52.006Z,2.75
2022-09-13T10:35:57.705Z,3.08
2022-09-13T10:37:59.445Z,2.40
2022-09-13T10:40:24.370Z,3.30
2022-09-13T10:42:27.715Z,2.55
2022-09-13T10:44:37.377Z,2.55
2022-09-13T10:46:40.146Z,2.70
2022-09-13T10:48:47.653Z,2.20
2022-09-13T10:51:09.204Z,2.25
2022-09-13T10:53:49.552Z,2.40
2022-09-13T10:55:55.203Z,1.95
2022-09-13T10:58:02.764Z,2.33
2022-09-13T11:00:10.550Z,2.40
2022-09-13T11:02:36.915Z,2.33
2022-09-13T11:04:43.931Z,1.83
2022-09-13T11:06:52.940Z,2.10
2022-09-13T11:09:14.954Z,1.95
2022-09-13T11:11:30.141Z,1.75
2022-09-13T11:13:44.805Z,1.95
2022-09-13T11:16:03.769Z,1.70
2022-09-13T11:18:24.213Z,1.77
2022-09-13T11:20:50.078Z,2.20
2022-09-13T11:23:05.045Z,2.63
2022-09-13T11:25:10.077Z,1.85
2022-09-13T11:27:40.361Z,2.22
2022-09-13T11:30:03.422Z,2.45
2022-09-13T11:32:32.770Z,1.90
2022-09-13T11:34:53.079Z,1.90
2022-09-13T11:37:19.857Z,1.80
2022-09-13T11:39:36.542Z,1.80
2022-09-13T11:42:10.425Z,1.95
2022-09-13T11:44:45.303Z,1.63
2022-09-13T11:46:56.430Z,1.30
2022-09-13T11:49:26.381Z,1.20
2022-09-13T11:52:05.389Z,1.10
2022-09-13T11:54:13.493Z,1.10
2022-09-13T11:56:24.115Z,1.30
2022-09-13T11:58:50.828Z,1.08
2022-09-13T12:00:57.690Z,1.20
2022-09-13T12:03:12.000Z,1.40
2022-09-13T12:05:23.880Z,1.05
2022-09-13T12:07:32.477Z,1.15
2022-09-13T12:09:53.263Z,1.30
2022-09-13T12:12:05.675Z,1.35
2022-09-13T12:14:12.689Z,1.35
2022-09-13T12:16:41.935Z,1.40
2022-09-13T12:18:47.111Z,1.35
2022-09-13T12:20:52.285Z,1.38
2022-09-13T12:22:54.939Z,1.20
2022-09-13T12:24:58.903Z,1.60
2022-09-13T12:27:00.543Z,2.20
2022-09-13T12:29:08.301Z,3.58
2022-09-13T12:31:22.651Z,2.40
2022-09-13T12:33:24.553Z,1.65
2022-09-13T12:35:30.611Z,1.30
2022-09-13T12:37:32.545Z,1.55
2022-09-13T12:39:59.176Z,1.70
2022-09-13T12:42:38.313Z,1.27
2022-09-13T12:44:54.738Z,1.25
2022-09-13T12:46:59.207Z,1.30
2022-09-13T12:49:06.555Z,1.30
2022-09-13T12:51:25.008Z,1.80
2022-09-13T12:53:39.378Z,1.30
2022-09-13T12:56:11.364Z,1.40
2022-09-13T12:58:45.402Z,0.93
2022-09-13T13:01:09.425Z,1.20
2022-09-13T13:03:14.009Z,1.55
2022-09-13T13:05:32.229Z,1.40
2022-09-13T13:07:35.635Z,1.48
2022-09-13T13:09:49.083Z,1.35
2022-09-13T13:11:51.853Z,1.33
2022-09-13T13:14:09.415Z,1.60
2022-09-13T13:16:34.032Z,1.10
2022-09-13T13:18:46.559Z,1.35
2022-09-13T13:20:53.800Z,1.40
2022-09-13T13:23:04.698Z,1.67
2022-09-13T13:25:56.866Z,1.13
2022-09-13T13:27:58.761Z,1.25
2022-09-13T13:30:34.807Z,1.30
2022-09-13T13:32:36.445Z,1.35
2022-09-13T13:34:43.790Z,1.40
2022-09-13T13:36:49.062Z,1.30
2022-09-13T13:38:54.286Z,1.15
2022-09-13T13:41:12.165Z,1.42
2022-09-13T13:43:33.912Z,1.17
2022-09-13T13:45:35.641Z,1.08
2022-09-13T13:47:37.422Z,1.52
2022-09-13T13:49:39.727Z,1.15
2022-09-13T13:51:41.732Z,1.33
2022-09-13T13:54:08.579Z,1.00
2022-09-13T13:56:25.646Z,1.27
2022-09-13T13:58:38.421Z,1.02
2022-09-13T14:00:48.637Z,1.40
2022-09-13T14:02:50.289Z,2.22
2022-09-13T14:05:00.526Z,1.02
2022-09-13T14:07:30.033Z,1.20
2022-09-13T14:09:50.687Z,1.00
2022-09-13T14:11:58.350Z,1.17
2022-09-13T14:14:33.830Z,1.40
2022-09-13T14:17:04.916Z,1.40
2022-09-13T14:19:18.673Z,1.00
2022-09-13T14:21:23.754Z,1.30
2022-09-13T14:23:25.373Z,1.30
2022-09-13T14:25:27.224Z,1.55
2022-09-13T14:27:35.949Z,1.55
2022-09-13T14:29:37.902Z,1.08
2022-09-13T14:31:39.684Z,1.38
2022-09-13T14:33:41.411Z,1.20
2022-09-13T14:35:44.037Z,1.15
2022-09-13T14:37:45.596Z,1.02
2022-09-13T14:39:55.798Z,1.52
2022-09-13T14:42:16.181Z,1.20
2022-09-13T14:44:28.360Z,1.40
2022-09-13T14:46:38.928Z,1.30
2022-09-13T14:48:48.451Z,1.30
2022-09-13T14:50:54.386Z,1.48
2022-09-13T14:53:07.302Z,1.20
2022-09-13T14:55:14.816Z,0.90
2022-09-13T14:57:26.735Z,1.05
2022-09-13T14:59:48.087Z,1.10
2022-09-13T15:01:49.769Z,1.45
2022-09-13T15:03:51.820Z,1.30
2022-09-13T15:05:57.277Z,1.05
2022-09-13T15:07:59.035Z,1.10
2022-09-13T15:10:12.978Z,1.17
2022-09-13T15:12:25.856Z,1.13
2022-09-13T15:14:35.104Z,1.20
2022-09-13T15:16:48.234Z,1.42
2022-09-13T15:18:49.932Z,0.98
2022-09-13T15:20:59.112Z,1.10
2022-09-13T15:23:00.812Z,1.23
2022-09-13T15:25:02.782Z,0.90
2022-09-13T15:27:07.552Z,1.20
2022-09-13T15:29:18.084Z,1.20
2022-09-13T15:31:25.077Z,1.10
2022-09-13T15:33:32.142Z,1.20
2022-09-13T15:35:38.705Z,1.25
2022-09-13T15:37:40.316Z,1.25
2022-09-13T15:39:43.781Z,1.33
2022-09-13T15:42:00.620Z,0.85
2022-09-13T15:44:04.925Z,0.88
2022-09-13T15:46:06.698Z,0.70
2022-09-13T15:48:30.745Z,0.80
2022-09-13T15:50:33.399Z,0.80
2022-09-13T15:52:35.029Z,0.90
2022-09-13T15:54:40.999Z,0.80
2022-09-13T15:56:45.070Z,1.00
2022-09-13T15:58:46.746Z,1.00
2022-09-13T16:00:48.575Z,0.77
2022-09-13T16:02:50.667Z,0.80
2022-09-13T16:04:52.689Z,1.20
2022-09-13T16:06:55.619Z,0.90
2022-09-13T16:08:57.565Z,1.50
2022-09-13T16:10:59.213Z,0.80
2022-09-13T16:13:00.844Z,1.00
2022-09-13T16:15:02.472Z,1.40
2022-09-13T16:17:19.627Z,1.25
2022-09-13T16:19:23.235Z,1.00
2022-09-13T16:21:25.623Z,1.17
2022-09-13T16:23:27.325Z,1.20
2022-09-13T16:25:29.132Z,1.20
2022-09-13T16:27:33.825Z,1.02
2022-09-13T16:29:35.786Z,1.45
2022-09-13T16:31:37.571Z,1.13
2022-09-13T16:33:39.211Z,1.20
2022-09-13T16:35:41.037Z,1.45
2022-09-13T16:37:43.085Z,1.30
2022-09-13T16:39:45.578Z,1.50
2022-09-13T16:41:47.263Z,1.15
2022-09-13T16:43:49.125Z,1.20
2022-09-13T16:45:51.567Z,1.45
2022-09-13T16:47:53.219Z,1.55
2022-09-13T16:49:54.796Z,1.48
2022-09-13T16:51:59.516Z,1.20
2022-09-13T16:54:01.303Z,2.00
2022-09-13T16:56:07.467Z,1.80
2022-09-13T16:58:09.098Z,1.50
2022-09-13T17:00:12.054Z,1.40
2022-09-13T17:02:13.836Z,1.50
2022-09-13T17:04:16.351Z,1.42
2022-09-13T17:06:19.623Z,1.40
2022-09-13T17:08:21.542Z,1.60
2022-09-13T17:10:24.211Z,1.30
2022-09-13T17:12:26.086Z,1.70
2022-09-13T17:14:27.811Z,1.40
2022-09-13T17:16:38.334Z,1.50
2022-09-13T17:18:40.010Z,1.50
2022-09-13T17:20:48.665Z,1.75
2022-09-13T17:22:50.463Z,1.42
2022-09-13T17:24:52.090Z,1.90
2022-09-13T17:26:54.650Z,1.42
2022-09-13T17:28:57.096Z,1.40
2022-09-13T17:31:02.306Z,1.63
2022-09-13T17:33:05.980Z,1.60
2022-09-13T17:35:08.491Z,1.63
2022-09-13T17:37:10.225Z,1.77
2022-09-13T17:39:11.945Z,2.75
2022-09-13T17:41:18.553Z,2.50
2022-09-13T17:43:20.141Z,2.58
2022-09-13T17:45:22.595Z,2.30
2022-09-13T17:47:24.273Z,3.35
2022-09-13T17:49:25.865Z,3.28
2022-09-13T17:51:30.217Z,2.65
2022-09-13T17:53:32.035Z,2.45
2022-09-13T17:55:33.722Z,2.33
2022-09-13T17:57:35.374Z,2.53
2022-09-13T17:59:37.043Z,2.67
2022-09-13T18:01:41.732Z,2.65
2022-09-13T18:03:43.758Z,2.13
2022-09-13T18:05:45.511Z,3.08
2022-09-13T18:07:47.319Z,2.42
2022-09-13T18:09:49.180Z,3.17
2022-09-13T18:11:51.091Z,2.53
2022-09-13T18:13:52.883Z,2.28
2022-09-13T18:16:07.481Z,2.25
2022-09-13T18:18:09.293Z,2.75
2022-09-13T18:20:11.232Z,2.75
2022-09-13T18:22:12.900Z,3.05
2022-09-13T18:24:14.587Z,2.90
2022-09-13T18:26:18.983Z,3.25
2022-09-13T18:28:20.636Z,3.08
2022-09-13T18:30:22.271Z,3.05
2022-09-13T18:32:24.048Z,4.00
2022-09-13T18:34:27.669Z,3.60
2022-09-13T18:36:30.925Z,2.83
2022-09-13T18:38:40.100Z,2.80
2022-09-13T18:40:41.714Z,3.00
2022-09-13T18:42:45.208Z,3.47
2022-09-13T18:44:46.909Z,3.20
2022-09-13T18:46:49.302Z,3.60
2022-09-13T18:48:57.530Z,2.90
2022-09-13T18:51:00.681Z,2.88
2022-09-13T18:53:02.252Z,2.67
2022-09-13T18:55:03.948Z,2.60
2022-09-13T18:57:05.719Z,3.22
2022-09-13T18:59:07.610Z,3.17
2022-09-13T19:01:14.405Z,3.25
2022-09-13T19:03:16.341Z,2.95
2022-09-13T19:05:20.068Z,3.45
2022-09-13T19:07:22.437Z,3.58
2022-09-13T19:09:24.653Z,3.60
2022-09-13T19:13:50.585Z,3.22
2022-09-13T19:15:52.279Z,3.38
2022-09-13T19:17:53.958Z,3.03
2022-09-13T19:19:55.634Z,3.40
2022-09-13T19:21:57.464Z,2.97
2022-09-13T19:24:04.053Z,3.45
2022-09-13T19:26:11.021Z,3.20
2022-09-13T19:28:12.648Z,3.50
2022-09-13T19:30:14.510Z,3.88
2022-09-13T19:32:16.168Z,3.85
2022-09-13T19:34:19.695Z,3.70
2022-09-13T19:36:23.438Z,4.22
2022-09-13T19:38:25.214Z,4.40
2022-09-13T19:40:28.249Z,3.72
2022-09-13T19:42:29.967Z,3.88
2022-09-13T19:44:31.633Z,3.35
2022-09-13T19:46:39.132Z,3.63
2022-09-13T19:48:42.599Z,3.97
2022-09-13T19:50:44.448Z,4.00
2022-09-13T19:52:46.064Z,3.47
2022-09-13T19:54:47.672Z,3.90
2022-09-13T19:56:50.157Z,4.70
2022-09-13T19:58:52.325Z,4.93
2022-09-13T20:01:10.580Z,4.20
2022-09-13T20:03:12.337Z,3.92
2022-09-13T20:05:13.965Z,4.82
2022-09-13T20:07:15.610Z,4.43
2022-09-13T20:09:19.677Z,3.80
2022-09-13T20:11:21.508Z,3.90
2022-09-13T20:13:24.128Z,3.83
2022-09-13T20:15:31.204Z,3.58
2022-09-13T20:17:32.815Z,4.07
2022-09-13T20:19:42.543Z,3.35
2022-09-13T20:21:50.328Z,3.85
2022-09-13T20:23:55.445Z,3.53
2022-09-13T20:25:57.054Z,3.65
2022-09-13T20:27:58.663Z,4.03
2022-09-13T20:30:00.688Z,3.90
2022-09-13T20:32:02.643Z,3.28
2022-09-13T20:34:06.285Z,3.90
2022-09-13T20:36:10.727Z,4.25
2022-09-13T20:38:12.351Z,4.35
2022-09-13T20:40:15.832Z,4.53
2022-09-13T20:42:17.836Z,3.45
2022-09-13T20:44:19.439Z,3.80
2022-09-13T20:46:22.342Z,4.32
2022-09-13T20:48:24.845Z,3.90
2022-09-13T20:50:27.169Z,5.72
2022-09-13T20:52:28.803Z,3.83
2022-09-13T20:54:30.520Z,4.25
2022-09-13T20:56:34.578Z,4.82
2022-09-13T20:58:37.401Z,4.35
2022-09-13T21:00:39.229Z,3.60
2022-09-13T21:02:40.892Z,4.30
2022-09-13T21:04:42.573Z,3.53
2022-09-13T21:07:02.821Z,4.13
2022-09-13T21:09:04.420Z,3.70
2022-09-13T21:11:06.121Z,3.80
2022-09-13T21:13:09.505Z,3.95
2022-09-13T21:15:11.157Z,3.83
2022-09-13T21:17:12.883Z,5.15
2022-09-13T21:19:14.656Z,3.85
2022-09-13T21:21:18.457Z,3.90
2022-09-13T21:23:20.007Z,4.78
2022-09-13T21:25:21.625Z,4.30
2022-09-13T21:27:23.203Z,4.40
2022-09-13T21:29:24.855Z,3.83
2022-09-13T21:31:28.957Z,3.35
2022-09-13T21:33:30.911Z,3.80
2022-09-13T21:35:39.767Z,4.28
2022-09-13T21:37:41.352Z,3.63
2022-09-13T21:39:43.009Z,4.22
2022-09-13T21:41:45.147Z,4.07
2022-09-13T21:43:46.925Z,4.10
2022-09-13T21:45:48.635Z,4.10
2022-09-13T21:47:50.354Z,4.53
2022-09-13T21:49:52.501Z,3.55
2022-09-13T21:51:54.363Z,4.25
2022-09-13T21:53:59.231Z,3.92
2022-09-13T21:56:05.314Z,3.50
2022-09-13T21:58:10.982Z,4.47
2022-09-13T22:00:14.682Z,4.22
2022-09-13T22:02:16.387Z,4.43
2022-09-13T22:04:23.118Z,4.20
2022-09-13T22:06:27.422Z,3.92
2022-09-13T22:08:37.157Z,4.57
2022-09-13T22:10:38.903Z,4.82
2022-09-13T22:12:40.504Z,5.57
2022-09-13T22:14:42.149Z,4.90
2022-09-13T22:16:46.462Z,4.03
2022-09-13T22:18:50.363Z,5.18
2022-09-13T22:20:52.002Z,5.18
2022-09-13T22:22:53.607Z,5.40
2022-09-13T22:24:55.229Z,5.13
2022-09-13T22:26:58.324Z,5.60
2022-09-13T22:29:00.290Z,5.32
2022-09-13T22:31:10.543Z,5.88
2022-09-13T22:33:12.227Z,6.00
2022-09-13T22:35:13.972Z,6.20
2022-09-13T22:37:15.772Z,5.97
2022-09-13T22:39:20.624Z,6.82
2022-09-13T22:41:24.663Z,6.45
2022-09-13T22:43:27.158Z,6.05
2022-09-13T22:45:29.002Z,7.55
2022-09-13T22:47:30.738Z,7.35
2022-09-13T22:49:32.371Z,7.35
2022-09-13T22:51:34.023Z,7.28
2022-09-13T22:53:38.927Z,7.72
2022-09-13T22:55:40.646Z,6.28
2022-09-13T22:57:42.229Z,7.38
2022-09-13T22:59:43.879Z,6.43
2022-09-13T23:01:46.069Z,6.88
2022-09-13T23:03:48.715Z,6.57
2022-09-13T23:05:52.265Z,6.25
2022-09-13T23:07:53.886Z,6.60
2022-09-13T23:09:55.537Z,6.80
2022-09-13T23:11:57.180Z,6.10
2022-09-13T23:14:01.683Z,5.80
2022-09-13T23:16:08.094Z,6.15
2022-09-13T23:18:10.216Z,6.95
2022-09-13T23:20:12.053Z,5.85
2022-09-13T23:22:13.660Z,6.32
2022-09-13T23:24:17.443Z,4.93
2022-09-13T23:26:21.094Z,5.00
2022-09-13T23:28:22.771Z,4.47
2022-09-13T23:30:24.737Z,4.75
2022-09-13T23:32:26.369Z,4.43
2022-09-13T23:34:28.091Z,4.68
2022-09-13T23:36:33.228Z,5.03
2022-09-13T23:38:35.038Z,4.65
2022-09-13T23:40:36.792Z,5.20
2022-09-13T23:42:38.399Z,4.00
2022-09-13T23:44:40.354Z,4.63
2022-09-13T23:46:41.988Z,4.68
2022-09-13T23:48:44.360Z,5.13
2022-09-13T23:50:46.219Z,4.30
2022-09-13T23:52:47.776Z,4.93
2022-09-13T23:54:49.494Z,5.05
2022-09-13T23:56:51.092Z,5.65
2022-09-13T23:58:53.134Z,5.35
